createdAt,value
2023-04-25T00:00:31.561Z,6.51
2023-04-25T00:03:00.609Z,6.48
2023-04-25T00:05:30.533Z,6.43
2023-04-25T00:08:00.009Z,6.39
2023-04-25T00:10:27.793Z,6.33
2023-04-25T00:12:55.402Z,6.31
2023-04-25T00:15:23.188Z,6.34
2023-04-25T00:17:50.916Z,6.38
2023-04-25T00:20:18.717Z,6.46
2023-04-25T00:22:46.456Z,6.52
2023-04-25T00:25:15.497Z,6.55
2023-04-25T00:27:43.725Z,6.62
2023-04-25T00:30:12.585Z,6.68
2023-04-25T00:32:40.257Z,6.66
2023-04-25T00:35:08.284Z,6.72
2023-04-25T00:37:36.009Z,6.78
2023-04-25T00:40:04.963Z,6.81
2023-04-25T00:42:34.067Z,6.78
2023-04-25T00:45:02.874Z,6.75
2023-04-25T00:47:31.058Z,6.69
2023-04-25T00:49:58.781Z,6.70
2023-04-25T00:52:26.591Z,6.71
2023-04-25T00:54:54.300Z,6.69
2023-04-25T00:57:22.100Z,6.60
2023-04-25T00:59:53.814Z,6.55
2023-04-25T01:02:22.831Z,6.41
2023-04-25T01:04:50.962Z,6.33
2023-04-25T01:07:18.764Z,6.37
2023-04-25T01:09:46.423Z,6.36
2023-04-25T01:12:15.580Z,6.38
2023-04-25T01:14:43.307Z,6.38
2023-04-25T01:17:12.665Z,6.47
2023-04-25T01:19:40.409Z,6.44
2023-04-25T01:22:11.239Z,6.40
2023-04-25T01:24:39.568Z,6.39
2023-04-25T01:27:07.448Z,6.39
2023-04-25T01:29:36.686Z,6.32
2023-04-25T01:32:05.109Z,6.28
2023-04-25T01:34:32.852Z,6.24
2023-04-25T01:37:02.970Z,6.25
2023-04-25T01:39:32.278Z,6.21
2023-04-25T01:42:02.499Z,6.16
2023-04-25T01:44:30.326Z,6.05
2023-04-25T01:46:58.109Z,5.99
2023-04-25T01:49:25.872Z,5.90
2023-04-25T01:51:53.560Z,5.83
2023-04-25T01:54:21.303Z,5.66
2023-04-25T01:56:53.729Z,5.60
2023-04-25T01:59:22.761Z,5.46
2023-04-25T02:01:50.532Z,5.26
2023-04-25T02:04:18.378Z,5.05
2023-04-25T02:06:46.216Z,4.89
2023-04-25T02:09:13.884Z,4.77
2023-04-25T02:11:41.759Z,4.60
2023-04-25T02:14:10.789Z,4.47
2023-04-25T02:16:40.742Z,4.36
2023-04-25T02:19:08.610Z,4.34
2023-04-25T02:21:36.721Z,4.33
2023-04-25T02:24:04.867Z,4.34
2023-04-25T02:26:32.539Z,4.39
2023-04-25T02:29:00.824Z,4.33
2023-04-25T02:31:29.954Z,4.27
2023-04-25T02:33:57.713Z,4.34
2023-04-25T02:36:25.430Z,4.41
2023-04-25T02:38:53.084Z,4.42
2023-04-25T02:41:21.797Z,4.38
2023-04-25T02:43:49.614Z,4.32
2023-04-25T02:46:22.923Z,4.28
2023-04-25T02:48:57.960Z,4.25
2023-04-25T02:51:25.909Z,4.33
2023-04-25T02:53:53.644Z,4.32
2023-04-25T02:56:21.401Z,4.40
2023-04-25T02:58:49.383Z,4.45
2023-04-25T03:01:17.057Z,4.51
2023-04-25T03:03:44.846Z,4.53
2023-04-25T03:06:14.000Z,4.57
2023-04-25T03:08:41.620Z,4.74
2023-04-25T03:11:09.310Z,4.91
2023-04-25T03:13:36.999Z,5.24
2023-04-25T03:16:05.017Z,5.51
2023-04-25T03:18:32.745Z,5.88
2023-04-25T03:21:00.623Z,6.05
2023-04-25T03:23:29.766Z,6.17
2023-04-25T03:25:57.418Z,6.12
2023-04-25T03:28:25.652Z,6.04
2023-04-25T03:30:53.355Z,6.02
2023-04-25T03:33:21.017Z,5.98
2023-04-25T03:35:48.672Z,5.85
2023-04-25T03:38:16.306Z,5.80
2023-04-25T03:40:45.379Z,5.75
2023-04-25T03:43:13.203Z,5.70
2023-04-25T03:45:40.980Z,5.68
2023-04-25T03:48:08.730Z,5.63
2023-04-25T03:50:37.147Z,5.57
2023-04-25T03:53:04.850Z,5.62
2023-04-25T03:55:32.754Z,5.65
2023-04-25T03:58:01.773Z,5.66
2023-04-25T04:00:29.461Z,5.64
2023-04-25T04:02:57.258Z,5.68
2023-04-25T04:05:25.413Z,5.66
2023-04-25T04:07:53.272Z,5.67
2023-04-25T04:10:21.258Z,5.67
2023-04-25T04:12:49.045Z,5.59
2023-04-25T04:15:18.083Z,5.52
2023-04-25T04:17:46.416Z,5.50
2023-04-25T04:20:14.247Z,5.55
2023-04-25T04:22:41.970Z,5.51
2023-04-25T04:25:11.073Z,5.47
2023-04-25T04:27:38.780Z,5.47
2023-04-25T04:30:08.439Z,5.53
2023-04-25T04:32:38.721Z,5.49
2023-04-25T04:35:07.519Z,5.60
2023-04-25T04:37:35.268Z,5.50
2023-04-25T04:40:06.836Z,5.54
2023-04-25T04:42:34.628Z,5.61
2023-04-25T04:45:02.499Z,5.64
2023-04-25T04:47:33.378Z,5.71
2023-04-25T04:50:03.740Z,5.66
2023-04-25T04:52:31.587Z,5.67
2023-04-25T04:54:59.233Z,5.65
2023-04-25T04:57:27.607Z,5.68
2023-04-25T04:59:55.387Z,5.74
2023-04-25T05:02:23.185Z,5.82
2023-04-25T05:04:52.652Z,5.90
2023-04-25T05:07:22.023Z,5.93
2023-04-25T05:09:49.717Z,5.93
2023-04-25T05:12:17.434Z,5.96
2023-04-25T05:14:45.140Z,5.91
2023-04-25T05:17:12.844Z,5.94
2023-04-25T05:19:41.417Z,5.91
2023-04-25T05:22:09.359Z,5.88
2023-04-25T05:24:38.409Z,5.89
2023-04-25T05:27:06.613Z,5.93
2023-04-25T05:29:34.398Z,5.94
2023-04-25T05:32:02.105Z,5.96
2023-04-25T05:34:29.788Z,6.04
2023-04-25T05:36:57.501Z,6.09
2023-04-25T05:39:25.166Z,6.18
2023-04-25T05:41:54.231Z,6.21
2023-04-25T05:44:21.960Z,6.32
2023-04-25T05:46:49.740Z,6.48
2023-04-25T05:49:19.472Z,6.62
2023-04-25T05:51:47.508Z,6.82
2023-04-25T05:54:15.179Z,7.10
2023-04-25T05:56:42.918Z,7.17
2023-04-25T05:59:11.985Z,7.10
2023-04-25T06:01:39.650Z,6.94
2023-04-25T06:04:07.488Z,6.83
2023-04-25T06:06:35.266Z,6.54
2023-04-25T06:09:02.934Z,6.28
2023-04-25T06:11:30.840Z,6.10
2023-04-25T06:13:58.594Z,5.83
2023-04-25T06:16:28.059Z,5.71
2023-04-25T06:18:55.725Z,5.60
2023-04-25T06:21:23.423Z,5.47
2023-04-25T06:23:51.386Z,5.27
2023-04-25T06:26:20.328Z,5.12
2023-04-25T06:28:48.036Z,5.03
2023-04-25T06:31:16.236Z,5.13
2023-04-25T06:33:45.510Z,5.22
2023-04-25T06:36:13.189Z,5.41
2023-04-25T06:38:40.869Z,5.61
2023-04-25T06:41:08.503Z,5.83
2023-04-25T06:43:36.186Z,5.89
2023-04-25T06:46:03.900Z,5.90
2023-04-25T06:48:31.599Z,5.85
2023-04-25T06:51:00.634Z,5.93
2023-04-25T06:53:28.332Z,6.15
2023-04-25T06:55:56.064Z,6.24
2023-04-25T06:58:23.732Z,6.42
2023-04-25T07:00:51.477Z,6.40
2023-04-25T07:03:19.282Z,6.31
2023-04-25T07:05:47.784Z,6.32
2023-04-25T07:08:16.752Z,6.37
2023-04-25T07:10:44.677Z,6.35
2023-04-25T07:13:12.323Z,6.33
2023-04-25T07:15:40.113Z,6.40
2023-04-25T07:18:07.833Z,6.47
2023-04-25T07:20:35.651Z,6.66
2023-04-25T07:23:03.428Z,6.78
2023-04-25T07:25:32.596Z,6.93
2023-04-25T07:28:00.274Z,7.06
2023-04-25T07:30:28.446Z,7.31
2023-04-25T07:32:56.423Z,7.42
2023-04-25T07:35:24.382Z,7.51
2023-04-25T07:37:52.115Z,7.36
2023-04-25T07:40:19.800Z,7.34
2023-04-25T07:42:48.895Z,7.27
2023-04-25T07:45:17.135Z,7.17
2023-04-25T07:47:44.834Z,7.28
2023-04-25T07:50:13.024Z,7.37
2023-04-25T07:52:40.713Z,7.56
2023-04-25T07:55:08.955Z,7.72
2023-04-25T07:57:36.661Z,7.88
2023-04-25T08:00:10.462Z,8.02
2023-04-25T08:02:38.263Z,8.27
2023-04-25T08:05:09.132Z,8.54
2023-04-25T08:07:37.064Z,8.85
2023-04-25T08:10:05.652Z,9.21
2023-04-25T08:12:33.379Z,9.59
2023-04-25T08:15:01.038Z,9.84
2023-04-25T08:17:30.155Z,9.84
2023-04-25T08:19:58.002Z,9.96
2023-04-25T08:22:25.733Z,10.27
2023-04-25T08:24:53.419Z,10.76
2023-04-25T08:27:21.893Z,10.95
2023-04-25T08:29:50.067Z,10.67
2023-04-25T08:32:17.791Z,10.30
2023-04-25T08:34:48.110Z,10.15
2023-04-25T08:37:15.846Z,9.95
2023-04-25T08:39:43.611Z,9.93
2023-04-25T08:42:14.090Z,9.66
2023-04-25T08:44:41.766Z,9.54
2023-04-25T08:47:09.526Z,9.78
2023-04-25T08:49:38.020Z,10.07
2023-04-25T08:52:07.704Z,10.28
2023-04-25T08:54:37.949Z,10.39
2023-04-25T08:57:07.765Z,10.61
2023-04-25T08:59:37.230Z,10.79
2023-04-25T09:02:06.317Z,11.11
2023-04-25T09:04:34.532Z,11.39
2023-04-25T09:07:02.211Z,11.04
2023-04-25T09:09:31.568Z,11.06
2023-04-25T09:12:00.446Z,11.05
2023-04-25T09:14:28.964Z,10.96
2023-04-25T09:17:02.055Z,10.98
2023-04-25T09:22:03.987Z,11.57
2023-04-25T09:24:37.979Z,11.92
2023-04-25T09:27:06.946Z,11.68
2023-04-25T09:29:35.990Z,11.83
2023-04-25T09:32:14.963Z,12.20
2023-04-25T09:34:43.772Z,12.39
2023-04-25T09:37:12.108Z,12.22
2023-04-25T09:39:41.857Z,12.24
2023-04-25T09:42:11.552Z,12.16
2023-04-25T09:44:39.857Z,12.05
2023-04-25T09:47:11.965Z,12.04
2023-04-25T09:49:42.226Z,12.08
2023-04-25T09:52:10.221Z,12.00
2023-04-25T09:54:37.947Z,11.88
2023-04-25T09:57:15.206Z,11.99
2023-04-25T09:59:46.888Z,11.71
2023-04-25T10:02:16.821Z,11.47
2023-04-25T10:04:49.388Z,11.43
2023-04-25T10:07:17.337Z,10.94
2023-04-25T10:09:46.648Z,10.91
2023-04-25T10:12:16.194Z,10.96
2023-04-25T10:14:44.627Z,11.26
2023-04-25T10:17:13.038Z,11.47
2023-04-25T10:19:41.866Z,11.37
2023-04-25T10:22:16.576Z,12.16
2023-04-25T10:24:45.444Z,13.18
2023-04-25T10:27:13.227Z,14.25
2023-04-25T10:29:44.301Z,14.88
2023-04-25T10:32:12.227Z,14.26
2023-04-25T10:34:41.946Z,14.08
2023-04-25T10:37:13.262Z,13.34
2023-04-25T10:39:42.650Z,12.88
2023-04-25T10:42:10.711Z,12.25
2023-04-25T10:44:40.310Z,11.70
2023-04-25T10:47:11.552Z,11.13
2023-04-25T10:49:40.372Z,10.90
2023-04-25T10:52:26.896Z,10.76
2023-04-25T10:54:56.053Z,10.47
2023-04-25T10:57:38.076Z,9.82
2023-04-25T11:00:12.658Z,9.17
2023-04-25T11:02:46.354Z,8.77
2023-04-25T11:05:23.340Z,8.66
2023-04-25T11:08:03.896Z,8.85
2023-04-25T11:10:33.866Z,9.30
2023-04-25T11:13:01.588Z,9.63
2023-04-25T11:15:29.769Z,9.84
2023-04-25T11:17:58.924Z,9.75
2023-04-25T11:20:29.626Z,9.70
2023-04-25T11:22:59.630Z,9.47
2023-04-25T11:25:28.083Z,8.91
2023-04-25T11:27:58.170Z,8.41
2023-04-25T11:30:27.660Z,8.16
2023-04-25T11:32:55.889Z,8.24
2023-04-25T11:35:26.618Z,8.37
2023-04-25T11:37:54.468Z,8.38
2023-04-25T11:40:22.247Z,8.44
2023-04-25T11:42:50.029Z,8.35
2023-04-25T11:45:19.639Z,8.37
2023-04-25T11:47:47.589Z,8.21
2023-04-25T11:50:15.674Z,7.91
2023-04-25T11:52:46.577Z,7.89
2023-04-25T11:55:16.193Z,7.83
2023-04-25T11:57:45.488Z,7.87
2023-04-25T12:00:18.080Z,7.76
2023-04-25T12:02:48.077Z,7.65
2023-04-25T12:05:30.978Z,7.62
2023-04-25T12:08:11.715Z,7.74
2023-04-25T12:10:40.604Z,7.74
2023-04-25T12:13:22.054Z,7.60
2023-04-25T12:15:49.928Z,7.56
2023-04-25T12:18:21.759Z,7.66
2023-04-25T12:20:49.472Z,7.53
2023-04-25T12:23:18.504Z,7.54
2023-04-25T12:25:48.082Z,7.30
2023-04-25T12:28:17.697Z,7.37
2023-04-25T12:30:59.434Z,7.50
2023-04-25T12:33:28.561Z,7.67
2023-04-25T12:35:57.053Z,7.73
2023-04-25T12:38:27.484Z,7.90
2023-04-25T12:40:55.545Z,8.14
2023-04-25T12:43:23.729Z,8.23
2023-04-25T12:45:52.136Z,8.31
2023-04-25T12:48:20.375Z,8.50
2023-04-25T12:50:49.989Z,8.63
2023-04-25T12:53:17.892Z,8.63
2023-04-25T12:55:47.935Z,8.36
2023-04-25T12:58:15.730Z,8.29
2023-04-25T13:00:44.105Z,8.13
2023-04-25T13:03:13.434Z,8.28
2023-04-25T13:05:42.149Z,8.37
2023-04-25T13:08:09.970Z,8.68
2023-04-25T13:10:39.412Z,8.40
2023-04-25T13:13:08.434Z,8.36
2023-04-25T13:15:36.344Z,8.36
2023-04-25T13:18:06.495Z,8.33
2023-04-25T13:20:34.305Z,8.49
2023-04-25T13:23:02.937Z,8.58
2023-04-25T13:25:30.863Z,8.68
2023-04-25T13:27:58.485Z,8.42
2023-04-25T13:30:27.583Z,8.20
2023-04-25T13:32:57.284Z,8.07
2023-04-25T13:35:25.548Z,7.82
2023-04-25T13:37:53.303Z,7.74
2023-04-25T13:40:22.830Z,7.92
2023-04-25T13:42:52.013Z,8.04
2023-04-25T13:45:19.988Z,7.89
2023-04-25T13:47:49.191Z,7.73
2023-04-25T13:50:17.139Z,7.45
2023-04-25T13:52:45.976Z,7.16
2023-04-25T13:55:13.806Z,6.99
2023-04-25T13:57:41.565Z,6.84
2023-04-25T14:00:10.883Z,6.82
2023-04-25T14:02:38.721Z,6.77
2023-04-25T14:05:08.934Z,6.63
2023-04-25T14:07:36.946Z,6.71
2023-04-25T14:10:06.691Z,6.46
2023-04-25T14:12:34.995Z,6.27
2023-04-25T14:15:02.742Z,6.34
2023-04-25T14:17:30.922Z,6.39
2023-04-25T14:19:58.606Z,6.33
2023-04-25T14:22:27.899Z,6.46
2023-04-25T14:24:55.665Z,6.57
2023-04-25T14:27:23.338Z,6.62
2023-04-25T14:29:51.327Z,6.64
2023-04-25T14:32:19.229Z,6.75
2023-04-25T14:34:46.901Z,6.95
2023-04-25T14:37:14.605Z,7.43
2023-04-25T14:39:44.814Z,7.72
2023-04-25T14:42:14.153Z,8.12
2023-04-25T14:44:41.828Z,8.26
2023-04-25T14:47:09.589Z,8.28
2023-04-25T14:49:37.435Z,8.33
2023-04-25T14:52:05.378Z,8.17
2023-04-25T14:54:33.292Z,8.08
2023-04-25T14:57:03.220Z,7.60
2023-04-25T14:59:31.036Z,7.53
2023-04-25T15:01:59.872Z,7.77
2023-04-25T15:04:27.958Z,7.87
2023-04-25T15:06:56.159Z,7.56
2023-04-25T15:09:24.958Z,7.58
2023-04-25T15:11:52.952Z,7.55
2023-04-25T15:14:21.958Z,7.52
2023-04-25T15:16:49.733Z,7.46
2023-04-25T15:19:17.427Z,7.54
2023-04-25T15:21:45.236Z,7.67
2023-04-25T15:24:13.112Z,7.59
2023-04-25T15:26:40.957Z,7.53
2023-04-25T15:29:08.765Z,7.63
2023-04-25T15:31:37.806Z,7.81
2023-04-25T15:34:06.206Z,7.95
2023-04-25T15:36:33.914Z,8.04
2023-04-25T15:39:01.740Z,8.18
2023-04-25T15:41:30.320Z,8.08
2023-04-25T15:43:57.988Z,8.37
2023-04-25T15:46:25.742Z,8.65
2023-04-25T15:48:54.918Z,8.89
2023-04-25T15:51:22.702Z,9.01
2023-04-25T15:53:51.076Z,8.57
2023-04-25T15:56:18.866Z,8.40
2023-04-25T15:58:46.568Z,8.19
2023-04-25T16:01:15.004Z,8.06
2023-04-25T16:03:42.880Z,7.90
2023-04-25T16:06:12.034Z,7.76
2023-04-25T16:08:40.002Z,7.85
2023-04-25T16:11:08.128Z,7.78
2023-04-25T16:13:36.204Z,7.56
2023-04-25T16:16:03.917Z,7.52
2023-04-25T16:18:31.640Z,7.36
2023-04-25T16:20:59.301Z,7.40
2023-04-25T16:23:28.346Z,7.37
2023-04-25T16:25:56.121Z,7.36
2023-04-25T16:28:23.824Z,7.42
2023-04-25T16:30:51.550Z,7.58
2023-04-25T16:33:19.302Z,7.62
2023-04-25T16:35:47.022Z,7.38
2023-04-25T16:38:14.727Z,7.27
2023-04-25T16:40:43.763Z,7.33
2023-04-25T16:43:11.425Z,7.43
2023-04-25T16:45:39.141Z,7.52
2023-04-25T16:48:07.141Z,7.55
2023-04-25T16:50:34.950Z,7.66
2023-04-25T16:53:02.647Z,7.79
2023-04-25T16:55:30.321Z,7.88
2023-04-25T16:57:59.542Z,7.78
2023-04-25T17:00:27.420Z,7.59
2023-04-25T17:02:55.299Z,7.38
2023-04-25T17:05:23.019Z,7.24
2023-04-25T17:07:50.695Z,7.17
2023-04-25T17:10:18.617Z,7.16
2023-04-25T17:12:47.487Z,7.12
2023-04-25T17:15:16.838Z,7.16
2023-04-25T17:17:44.578Z,7.14
2023-04-25T17:20:13.670Z,7.11
2023-04-25T17:22:41.632Z,7.08
2023-04-25T17:25:10.648Z,6.98
2023-04-25T17:27:38.587Z,6.95
2023-04-25T17:30:08.343Z,6.93
2023-04-25T17:32:37.409Z,6.94
2023-04-25T17:35:05.710Z,7.02
2023-04-25T17:37:33.697Z,6.99
2023-04-25T17:40:01.645Z,7.03
2023-04-25T17:42:29.536Z,6.99
2023-04-25T17:44:57.275Z,6.95
2023-04-25T17:47:25.028Z,6.99
2023-04-25T17:49:54.697Z,6.89
2023-04-25T17:52:22.353Z,6.83
2023-04-25T17:54:50.038Z,6.79
2023-04-25T17:57:17.685Z,6.78
2023-04-25T17:59:45.418Z,6.84
2023-04-25T18:02:13.209Z,6.87
2023-04-25T18:04:41.005Z,6.85
2023-04-25T18:07:10.078Z,6.88
2023-04-25T18:09:37.795Z,6.82
2023-04-25T18:12:05.990Z,6.84
2023-04-25T18:14:35.043Z,6.78
2023-04-25T18:17:04.121Z,6.81
2023-04-25T18:19:31.866Z,6.76
2023-04-25T18:21:59.529Z,6.69
2023-04-25T18:24:28.594Z,6.66
2023-04-25T18:27:00.254Z,6.65
2023-04-25T18:29:33.580Z,6.59
2023-04-25T18:32:01.964Z,6.37
2023-04-25T18:34:29.950Z,6.03
2023-04-25T18:36:57.923Z,5.73
2023-04-25T18:39:26.156Z,5.58
2023-04-25T18:42:04.361Z,5.46
2023-04-25T18:44:39.348Z,5.41
2023-04-25T18:47:07.674Z,5.31
2023-04-25T18:49:35.464Z,5.23
2023-04-25T18:52:03.518Z,5.26
2023-04-25T18:54:31.968Z,5.10
2023-04-25T18:57:01.116Z,5.03
2023-04-25T18:59:29.016Z,5.05
2023-04-25T19:01:56.901Z,4.97
2023-04-25T19:04:24.846Z,4.99
2023-04-25T19:06:54.191Z,5.13
2023-04-25T19:09:22.010Z,5.10
2023-04-25T19:11:49.668Z,5.11
2023-04-25T19:14:18.717Z,5.11
2023-04-25T19:16:46.591Z,5.14
2023-04-25T19:19:14.398Z,5.15
2023-04-25T19:21:42.618Z,5.15
2023-04-25T19:24:11.122Z,5.19
2023-04-25T19:26:38.881Z,5.28
2023-04-25T19:29:08.819Z,5.25
2023-04-25T19:31:39.125Z,5.28
2023-04-25T19:34:07.868Z,5.28
2023-04-25T19:36:37.742Z,5.27
2023-04-25T19:39:07.158Z,5.22
2023-04-25T19:41:37.025Z,5.22
2023-04-25T19:44:06.537Z,5.25
2023-04-25T19:46:37.814Z,5.27
2023-04-25T19:49:07.878Z,5.29
2023-04-25T19:51:36.274Z,5.25
2023-04-25T19:54:04.256Z,5.22
2023-04-25T19:56:32.553Z,5.14
2023-04-25T19:59:00.278Z,5.07
2023-04-25T20:01:28.411Z,5.10
2023-04-25T20:03:56.347Z,5.05
2023-04-25T20:06:26.359Z,4.99
2023-04-25T20:08:54.564Z,5.03
2023-04-25T20:11:22.525Z,5.08
2023-04-25T20:13:50.564Z,5.07
2023-04-25T20:16:20.384Z,5.01
2023-04-25T20:18:48.640Z,5.04
2023-04-25T20:21:17.593Z,4.96
2023-04-25T20:23:46.968Z,4.94
2023-04-25T20:26:14.639Z,4.89
2023-04-25T20:28:42.814Z,4.88
2023-04-25T20:31:10.895Z,4.90
2023-04-25T20:33:38.859Z,4.86
2023-04-25T20:36:06.713Z,4.82
2023-04-25T20:38:34.448Z,4.76
2023-04-25T20:41:03.699Z,4.68
2023-04-25T20:43:31.771Z,4.66
2023-04-25T20:46:00.475Z,4.70
2023-04-25T20:48:28.312Z,4.73
2023-04-25T20:50:56.295Z,4.72
2023-04-25T20:53:24.051Z,4.76
2023-04-25T20:55:51.699Z,4.81
2023-04-25T20:58:21.472Z,4.81
2023-04-25T21:00:50.635Z,4.79
2023-04-25T21:03:18.536Z,4.80
2023-04-25T21:05:46.737Z,4.78
2023-04-25T21:08:14.426Z,4.78
2023-04-25T21:10:42.163Z,4.82
2023-04-25T21:13:09.947Z,4.81
2023-04-25T21:15:39.137Z,4.85
2023-04-25T21:18:07.114Z,4.87
2023-04-25T21:20:34.939Z,4.88
2023-04-25T21:23:02.966Z,4.89
2023-04-25T21:25:31.925Z,4.81
2023-04-25T21:28:00.329Z,4.83
2023-04-25T21:30:28.261Z,4.74
2023-04-25T21:32:57.501Z,4.76
2023-04-25T21:35:25.379Z,4.83
2023-04-25T21:37:53.379Z,4.83
2023-04-25T21:40:21.131Z,4.87
2023-04-25T21:42:51.447Z,4.85
2023-04-25T21:45:19.838Z,4.85
2023-04-25T21:47:48.185Z,4.87
2023-04-25T21:50:19.451Z,4.88
2023-04-25T21:52:48.126Z,4.86
2023-04-25T21:55:16.467Z,4.86
2023-04-25T21:57:44.170Z,4.81
2023-04-25T22:00:24.301Z,4.69
2023-04-25T22:02:52.764Z,4.55
2023-04-25T22:05:22.544Z,4.45
2023-04-25T22:07:51.410Z,4.42
2023-04-25T22:10:19.639Z,4.40
2023-04-25T22:12:50.657Z,4.39
2023-04-25T22:15:19.323Z,4.42
2023-04-25T22:17:47.503Z,4.42
2023-04-25T22:20:18.523Z,4.41
2023-04-25T22:22:47.576Z,4.46
2023-04-25T22:25:15.883Z,4.49
2023-04-25T22:27:43.813Z,4.62
2023-04-25T22:30:13.789Z,4.62
2023-04-25T22:32:42.009Z,4.61
2023-04-25T22:35:11.635Z,4.57
2023-04-25T22:37:39.991Z,4.66
2023-04-25T22:40:10.098Z,4.61
2023-04-25T22:42:39.660Z,4.73
2023-04-25T22:45:08.440Z,4.72
2023-04-25T22:47:36.457Z,4.85
2023-04-25T22:50:05.753Z,4.87
2023-04-25T22:58:46.257Z,4.84
2023-04-25T23:01:13.990Z,4.82
2023-04-25T23:03:41.800Z,4.84
2023-04-25T23:06:09.681Z,4.86
2023-04-25T23:08:37.637Z,4.80
2023-04-25T23:11:07.836Z,4.80
2023-04-25T23:13:36.578Z,4.82
2023-04-25T23:16:09.400Z,4.84
2023-04-25T23:18:37.323Z,4.90
2023-04-25T23:21:07.540Z,4.89
2023-04-25T23:23:35.375Z,4.94
2023-04-25T23:26:08.365Z,4.93
2023-04-25T23:28:38.727Z,4.90
2023-04-25T23:31:10.479Z,4.86
2023-04-25T23:33:38.407Z,4.90
2023-04-25T23:36:07.386Z,4.89
2023-04-25T23:38:35.015Z,4.88
2023-04-25T23:41:02.654Z,4.85
2023-04-25T23:43:30.320Z,4.95
2023-04-25T23:45:58.014Z,4.93
2023-04-25T23:48:27.200Z,4.93
2023-04-25T23:50:54.884Z,4.92
2023-04-25T23:53:22.586Z,4.90
2023-04-25T23:55:50.250Z,4.86
2023-04-25T23:58:17.900Z,4.82
